Time;durP1;ratioP1;P1;durP2;ratioP2;P2;SDS_P1;SDS_P2;PMS_P1;PMS_P2;Temp;Humidity;BMP_temperature;BMP_pressure;BME280_temperature;BME280_humidity;BME280_pressure;Samples;Min_cycle;Max_cycle;Signal;HPM_P1;HPM_P2
2023/06/26 00:00:19;;;;;;;6.38;4.60;;;23.70;99.90;;;;;;12404004;28;20526;-40
2023/06/26 00:06:21;;;;;;;8.38;4.75;;;23.70;99.90;;;;;;12408938;28;20218;-40
2023/06/26 00:12:23;;;;;;;5.72;4.80;;;23.60;99.90;;;;;;12425328;28;20426;-40
2023/06/26 00:18:24;;;;;;;5.82;4.30;;;23.40;99.90;;;;;;12417499;28;20050;-39
2023/06/26 00:24:27;;;;;;;6.38;4.75;;;23.30;99.90;;;;;;12400466;28;20410;-40
2023/06/26 00:30:29;;;;;;;6.28;4.60;;;23.10;99.90;;;;;;12403251;28;20544;-39
2023/06/26 00:36:31;;;;;;;9.50;4.95;;;23.10;99.90;;;;;;12421186;28;20062;-40
2023/06/26 00:42:33;;;;;;;6.35;4.88;;;23.10;99.90;;;;;;12414135;28;20070;-40
2023/06/26 00:48:35;;;;;;;8.13;4.60;;;23.00;99.90;;;;;;12423640;28;20050;-40
2023/06/26 00:54:37;;;;;;;6.45;4.72;;;23.00;99.90;;;;;;12421682;28;20061;-40
2023/06/26 01:00:39;;;;;;;9.35;4.93;;;23.00;99.90;;;;;;12413624;28;20057;-39
2023/06/26 01:06:42;;;;;;;7.60;4.90;;;23.00;99.90;;;;;;12402034;28;20132;-40
2023/06/26 01:12:45;;;;;;;6.38;5.18;;;22.80;99.90;;;;;;12420211;28;20052;-40
2023/06/26 01:18:48;;;;;;;6.60;4.87;;;22.70;99.90;;;;;;12420496;28;20536;-40
2023/06/26 01:25:00;;;;;;;;;;;22.70;99.90;;;;;;12390783;28;20310;-40
2023/06/26 01:31:04;;;;;;;6.03;5.07;;;22.70;99.90;;;;;;12420878;28;19921;-41
2023/06/26 01:37:06;;;;;;;6.43;5.00;;;22.60;99.90;;;;;;12423198;28;20088;-40
2023/06/26 01:43:26;;;;;;;6.15;4.90;;;22.60;99.90;;;;;;12425255;28;20513;-40
2023/06/26 01:49:53;;;;;;;9.18;4.95;;;22.60;99.90;;;;;;12402369;28;20043;-40
2023/06/26 01:56:03;;;;;;;6.10;4.47;;;22.40;99.90;;;;;;12409625;28;20049;-41
2023/06/26 02:02:07;;;;;;;6.00;4.57;;;22.40;99.90;;;;;;12438787;28;20934;-40
2023/06/26 02:08:09;;;;;;;6.60;5.00;;;22.40;99.90;;;;;;12411170;28;20518;-39
2023/06/26 02:14:12;;;;;;;6.45;4.93;;;22.40;99.90;;;;;;12405691;28;20132;-39
2023/06/26 02:20:15;;;;;;;8.60;4.85;;;22.40;99.90;;;;;;12423822;28;20065;-39
2023/06/26 02:26:17;;;;;;;7.53;4.85;;;22.30;99.90;;;;;;12407942;28;20042;-40
2023/06/26 02:32:19;;;;;;;6.07;4.68;;;22.40;99.90;;;;;;12415534;28;20065;-40
2023/06/26 02:38:21;;;;;;;8.30;4.95;;;22.30;99.90;;;;;;12401399;28;20088;-40
2023/06/26 02:44:23;;;;;;;6.57;4.30;;;22.40;99.90;;;;;;12411891;28;20066;-40
2023/06/26 02:50:25;;;;;;;7.10;4.95;;;22.50;99.90;;;;;;12405839;28;20046;-40
2023/06/26 02:56:28;;;;;;;7.32;4.60;;;22.30;99.90;;;;;;12409442;28;20610;-40
2023/06/26 03:02:30;;;;;;;10.85;5.10;;;22.40;99.90;;;;;;12438086;28;20099;-40
2023/06/26 03:08:33;;;;;;;9.35;4.75;;;22.30;99.90;;;;;;12402942;28;20081;-40
2023/06/26 03:14:35;;;;;;;8.00;4.75;;;22.30;99.90;;;;;;12400463;28;20045;-40
2023/06/26 03:20:37;;;;;;;7.50;4.78;;;22.20;99.90;;;;;;12418622;28;20489;-39
2023/06/26 03:26:39;;;;;;;7.22;4.72;;;22.20;99.90;;;;;;12417951;28;20056;-40
2023/06/26 03:32:41;;;;;;;6.13;5.03;;;22.20;99.90;;;;;;12410562;28;20054;-40
2023/06/26 03:38:43;;;;;;;8.75;4.70;;;22.20;99.90;;;;;;12401302;28;20391;-40
2023/06/26 03:44:45;;;;;;;7.25;4.68;;;22.20;99.90;;;;;;12406413;28;20042;-40
2023/06/26 03:50:47;;;;;;;7.30;4.30;;;22.20;99.90;;;;;;12402569;28;20049;-40
2023/06/26 03:56:49;;;;;;;7.82;4.60;;;22.20;99.90;;;;;;12408485;28;20055;-40
2023/06/26 04:02:52;;;;;;;5.75;4.50;;;22.30;99.90;;;;;;12411042;28;20062;-41
2023/06/26 04:08:54;;;;;;;5.43;4.13;;;22.40;99.90;;;;;;12421562;28;20116;-40
2023/06/26 04:14:55;;;;;;;7.45;4.35;;;22.40;99.90;;;;;;12437687;28;20046;-40
2023/06/26 04:21:12;;;;;;;5.80;4.47;;;22.70;99.90;;;;;;12416972;28;20049;-41
2023/06/26 04:27:13;;;;;;;7.18;5.07;;;23.20;99.90;;;;;;12423319;28;20058;-40
2023/06/26 04:33:16;;;;;;;7.60;5.20;;;23.40;99.90;;;;;;12412075;28;20120;-40
2023/06/26 04:39:18;;;;;;;6.65;5.43;;;23.60;99.90;;;;;;12419751;28;20046;-39
2023/06/26 04:45:19;;;;;;;7.35;5.15;;;23.60;99.90;;;;;;12397061;28;20114;-40
2023/06/26 04:51:23;;;;;;;6.30;4.72;;;23.40;99.90;;;;;;12416069;28;20141;-39
2023/06/26 04:57:25;;;;;;;6.27;4.30;;;23.50;99.90;;;;;;12432879;28;20116;-39
2023/06/26 05:03:27;;;;;;;8.32;4.90;;;23.40;99.90;;;;;;12405029;28;20054;-39
2023/06/26 05:09:30;;;;;;;9.88;4.57;;;23.40;99.90;;;;;;12390810;28;20062;-40
2023/06/26 05:15:31;;;;;;;6.85;5.03;;;23.20;99.90;;;;;;12423486;28;20042;-39
2023/06/26 05:21:34;;;;;;;8.60;4.88;;;22.80;99.90;;;;;;12430792;28;20046;-40
2023/06/26 05:27:37;;;;;;;6.60;4.80;;;22.60;99.90;;;;;;12399361;28;20042;-40
2023/06/26 05:33:42;;;;;;;6.35;4.93;;;22.50;99.90;;;;;;12413724;28;20050;-39
2023/06/26 05:39:45;;;;;;;7.35;4.40;;;22.70;99.90;;;;;;12406740;28;20062;-40
2023/06/26 05:45:48;;;;;;;6.18;4.60;;;22.80;99.90;;;;;;12418125;28;20042;-39
2023/06/26 05:51:51;;;;;;;5.47;4.50;;;23.10;99.90;;;;;;12408345;28;20101;-40
2023/06/26 05:57:54;;;;;;;6.75;4.68;;;23.40;99.90;;;;;;12414719;28;20534;-40
2023/06/26 06:03:56;;;;;;;;;;;23.40;99.90;;;;;;12403281;28;20078;-39
2023/06/26 06:09:58;;;;;;;9.50;4.85;;;23.40;99.90;;;;;;12410240;28;19972;-40
2023/06/26 06:16:01;;;;;;;10.40;5.33;;;23.30;99.90;;;;;;12406870;28;20050;-39
2023/06/26 06:22:03;;;;;;;6.90;5.18;;;23.30;99.90;;;;;;12414093;28;20058;-40
2023/06/26 06:28:05;;;;;;;6.88;5.13;;;23.40;99.90;;;;;;12402923;28;20057;-40
2023/06/26 06:34:07;;;;;;;8.05;5.38;;;23.60;99.90;;;;;;12399133;28;20390;-39
2023/06/26 06:40:10;;;;;;;9.20;5.95;;;23.80;99.90;;;;;;12406196;28;20414;-39
2023/06/26 06:46:12;;;;;;;8.25;6.20;;;24.00;99.90;;;;;;12404089;28;20050;-39
2023/06/26 06:52:14;;;;;;;9.05;6.25;;;24.00;99.90;;;;;;12423514;28;20038;-40
2023/06/26 06:58:18;;;;;;;8.32;6.32;;;23.90;99.90;;;;;;12406034;28;20409;-39
2023/06/26 07:04:20;;;;;;;10.43;5.80;;;24.00;99.90;;;;;;12420523;28;20041;-39
2023/06/26 07:10:22;;;;;;;8.95;6.38;;;24.10;99.90;;;;;;12384146;28;20046;-40
2023/06/26 07:16:24;;;;;;;11.38;6.93;;;24.20;99.90;;;;;;12411310;28;20446;-39
2023/06/26 07:22:26;;;;;;;11.20;7.95;;;23.90;99.90;;;;;;12404256;28;20050;-40
2023/06/26 07:28:28;;;;;;;9.32;7.35;;;23.70;99.90;;;;;;12421979;28;20058;-40
2023/06/26 07:34:30;;;;;;;11.25;7.65;;;23.80;99.90;;;;;;12407363;28;20060;-38
2023/06/26 07:40:32;;;;;;;11.70;7.75;;;23.70;99.90;;;;;;12404379;28;20423;-40
2023/06/26 07:46:34;;;;;;;11.50;7.85;;;23.60;99.90;;;;;;12400334;28;20058;-39
2023/06/26 07:52:36;;;;;;;13.18;8.65;;;23.40;99.90;;;;;;12409909;28;20061;-39
2023/06/26 07:58:38;;;;;;;11.80;8.23;;;23.50;99.90;;;;;;12408207;28;20050;-39
2023/06/26 08:04:40;;;;;;;8.75;7.15;;;23.50;99.90;;;;;;12402186;28;20054;-39
2023/06/26 08:10:43;;;;;;;8.98;6.82;;;23.60;99.90;;;;;;12415631;28;20144;-39
2023/06/26 08:16:46;;;;;;;11.18;7.60;;;23.30;99.90;;;;;;12420049;28;20064;-39
2023/06/26 08:22:51;;;;;;;10.55;8.25;;;23.40;99.90;;;;;;12411798;28;20088;-39
2023/06/26 08:28:53;;;;;;;12.77;8.82;;;23.30;99.90;;;;;;12413320;28;20429;-40
2023/06/26 08:34:54;;;;;;;14.73;8.30;;;23.40;99.90;;;;;;12407630;28;20046;-40
2023/06/26 08:40:56;;;;;;;13.07;8.43;;;23.40;99.90;;;;;;12420142;28;20054;-40
2023/06/26 08:47:00;;;;;;;14.13;8.45;;;23.50;99.90;;;;;;12388087;28;20046;-39
2023/06/26 08:53:29;;;;;;;15.90;9.02;;;23.50;99.90;;;;;;12405676;28;20050;-40
2023/06/26 08:59:31;;;;;;;15.38;8.25;;;23.40;99.90;;;;;;12418661;28;20050;-39
2023/06/26 09:05:33;;;;;;;16.75;8.05;;;23.00;99.90;;;;;;12407017;28;20093;-39
2023/06/26 09:11:35;;;;;;;16.88;7.95;;;22.70;99.90;;;;;;12405493;28;20041;-39
2023/06/26 09:17:41;;;;;;;15.13;8.20;;;22.60;99.90;;;;;;12416719;28;20050;-39
2023/06/26 09:23:43;;;;;;;14.20;7.90;;;22.50;99.90;;;;;;12420429;28;20042;-39
2023/06/26 09:29:46;;;;;;;12.98;8.38;;;22.70;99.90;;;;;;12423338;28;20054;-39
2023/06/26 09:35:48;;;;;;;12.73;7.43;;;23.10;99.90;;;;;;12419605;28;20077;-39
2023/06/26 09:41:51;;;;;;;11.80;6.65;;;23.00;99.90;;;;;;12409328;28;20058;-39
2023/06/26 09:47:52;;;;;;;12.60;5.87;;;23.00;99.90;;;;;;12405122;28;20046;-39
2023/06/26 09:53:55;;;;;;;11.77;5.22;;;23.20;99.90;;;;;;12404633;28;20534;-39
2023/06/26 09:59:57;;;;;;;10.25;5.45;;;23.00;99.90;;;;;;12418853;28;20429;-40
2023/06/26 10:06:00;;;;;;;8.88;5.47;;;23.20;99.90;;;;;;12412882;28;20042;-39
2023/06/26 10:12:12;;;;;;;10.50;5.15;;;23.10;99.90;;;;;;12406130;28;20513;-39
2023/06/26 10:18:16;;;;;;;12.85;5.95;;;22.80;99.90;;;;;;12409375;28;20076;-39
2023/06/26 10:24:19;;;;;;;;;;;22.70;99.90;;;;;;12433260;28;20045;-40
2023/06/26 10:30:26;;;;;;;11.35;5.10;;;22.90;99.90;;;;;;12410793;28;19929;-40
2023/06/26 10:36:30;;;;;;;13.98;5.40;;;22.80;99.90;;;;;;12425984;28;20454;-40
2023/06/26 10:42:37;;;;;;;11.02;6.03;;;22.70;99.90;;;;;;12406633;28;20519;-40
2023/06/26 10:48:57;;;;;;;12.07;4.57;;;22.60;99.90;;;;;;12422055;28;20038;-40
2023/06/26 10:55:01;;;;;;;10.27;4.70;;;22.50;99.90;;;;;;12383475;28;20046;-39
2023/06/26 11:01:19;;;;;;;9.35;5.10;;;22.30;99.90;;;;;;12405928;28;20052;-39
2023/06/26 11:07:23;;;;;;;9.13;4.50;;;22.30;99.90;;;;;;12391059;28;20177;-40
2023/06/26 11:13:26;;;;;;;8.02;4.10;;;22.40;99.90;;;;;;12397630;28;20384;-39
2023/06/26 11:19:28;;;;;;;4.45;2.80;;;22.40;99.90;;;;;;12406005;28;20054;-39
2023/06/26 11:25:35;;;;;;;10.93;2.45;;;22.90;99.90;;;;;;12419447;28;20092;-40
2023/06/26 11:31:39;;;;;;;5.95;2.58;;;22.70;99.90;;;;;;12408033;28;20137;-39
2023/06/26 11:37:40;;;;;;;5.38;2.30;;;22.70;99.90;;;;;;12409425;28;20070;-40
2023/06/26 11:43:42;;;;;;;6.95;2.35;;;23.00;99.90;;;;;;12421313;28;20053;-39
2023/06/26 11:49:46;;;;;;;7.85;2.58;;;23.10;99.90;;;;;;12402167;28;20042;-40
2023/06/26 11:55:48;;;;;;;6.15;2.35;;;22.90;99.90;;;;;;12387856;28;20100;-40
2023/06/26 12:01:51;;;;;;;4.25;2.22;;;23.60;99.90;;;;;;12412499;28;20435;-39
2023/06/26 12:07:53;;;;;;;6.32;1.80;;;24.20;99.90;;;;;;12408201;28;20050;-39
2023/06/26 12:13:56;;;;;;;4.53;1.83;;;24.10;99.90;;;;;;12395640;28;20104;-39
2023/06/26 12:19:58;;;;;;;4.27;2.03;;;23.70;99.90;;;;;;12403046;28;20065;-39
2023/06/26 12:26:19;;;;;;;4.38;1.70;;;24.00;99.90;;;;;;12418745;28;20407;-39
2023/06/26 12:32:25;;;;;;;9.30;2.17;;;24.30;99.90;;;;;;12421346;28;20058;-39
2023/06/26 12:38:35;;;;;;;5.93;2.13;;;24.10;99.90;;;;;;12425794;28;20042;-39
2023/06/26 12:44:37;;;;;;;6.60;2.13;;;24.10;99.90;;;;;;12410336;28;20045;-39
2023/06/26 12:50:45;;;;;;;5.55;2.00;;;24.40;99.90;;;;;;12421091;28;20057;-39
2023/06/26 12:56:47;;;;;;;3.95;1.80;;;24.40;99.90;;;;;;12400695;28;20042;-40
2023/06/26 13:02:49;;;;;;;5.25;1.80;;;23.90;99.90;;;;;;12417170;28;20093;-40
2023/06/26 13:08:53;;;;;;;12.45;2.10;;;23.60;99.90;;;;;;12400358;28;20061;-39
2023/06/26 13:14:55;;;;;;;4.65;1.88;;;23.70;99.90;;;;;;12405607;28;20085;-40
2023/06/26 13:20:57;;;;;;;5.75;2.20;;;23.90;99.90;;;;;;12420918;28;20054;-40
2023/06/26 13:26:59;;;;;;;4.47;1.95;;;23.50;99.90;;;;;;12414180;28;20046;-39
2023/06/26 13:33:01;;;;;;;3.53;1.75;;;23.50;99.90;;;;;;12416412;28;20164;-39
2023/06/26 13:39:03;;;;;;;7.13;1.90;;;23.50;99.90;;;;;;12417332;28;20132;-40
2023/06/26 13:45:06;;;;;;;3.22;1.83;;;23.70;99.90;;;;;;12393377;28;20050;-40
2023/06/26 13:51:27;;;;;;;7.22;1.90;;;23.70;99.90;;;;;;12403060;28;20042;-39
2023/06/26 13:57:30;;;;;;;4.85;2.17;;;23.20;99.90;;;;;;12411955;28;20513;-40
2023/06/26 14:03:32;;;;;;;4.35;1.67;;;23.00;99.90;;;;;;12417897;28;20050;-39
2023/06/26 14:09:34;;;;;;;5.28;1.98;;;23.60;99.90;;;;;;12407587;28;20049;-39
2023/06/26 14:15:36;;;;;;;5.72;1.90;;;23.10;99.90;;;;;;12400848;28;20049;-39
2023/06/26 14:21:38;;;;;;;6.60;2.03;;;22.60;99.90;;;;;;12411276;28;20058;-38
2023/06/26 14:27:40;;;;;;;6.03;2.38;;;22.90;99.90;;;;;;12417062;28;20398;-39
2023/06/26 14:33:43;;;;;;;5.18;2.08;;;22.90;99.90;;;;;;12393802;28;20035;-39
2023/06/26 14:39:45;;;;;;;10.23;2.15;;;22.60;99.90;;;;;;12395710;28;20533;-39
2023/06/26 14:45:48;;;;;;;5.23;2.00;;;22.40;99.90;;;;;;12389706;28;20499;-40
2023/06/26 14:51:50;;;;;;;5.60;1.93;;;22.60;99.90;;;;;;12400106;28;20042;-39
2023/06/26 14:57:52;;;;;;;4.05;1.70;;;22.70;99.90;;;;;;12415511;28;20062;-38
2023/06/26 15:03:54;;;;;;;4.55;1.60;;;22.90;99.90;;;;;;12404941;28;20525;-39
2023/06/26 15:09:56;;;;;;;4.45;1.45;;;22.80;99.90;;;;;;12403678;28;20042;-39
2023/06/26 15:15:58;;;;;;;4.50;1.60;;;22.50;99.90;;;;;;12397176;28;20048;-39
2023/06/26 15:22:00;;;;;;;5.93;1.20;;;22.60;99.90;;;;;;12410367;28;20055;-39
2023/06/26 15:28:03;;;;;;;7.25;2.55;;;22.80;99.90;;;;;;12409517;28;20065;-39
2023/06/26 15:34:06;;;;;;;6.97;1.50;;;22.60;99.90;;;;;;12400565;28;20494;-39
2023/06/26 15:40:08;;;;;;;4.45;2.15;;;22.60;99.90;;;;;;12408035;28;20061;-39
2023/06/26 15:46:10;;;;;;;5.43;1.77;;;22.60;99.90;;;;;;12390430;28;20545;-42
2023/06/26 15:52:12;;;;;;;5.03;2.10;;;22.60;99.90;;;;;;12390336;28;20621;-40
2023/06/26 15:58:14;;;;;;;11.13;4.50;;;22.40;99.90;;;;;;12406727;28;20046;-39
2023/06/26 16:04:17;;;;;;;9.32;2.85;;;22.40;99.90;;;;;;12425844;28;20471;-39
2023/06/26 16:10:19;;;;;;;;;;;22.10;99.90;;;;;;12398826;28;20076;-39
2023/06/26 16:16:21;;;;;;;5.03;1.00;;;22.20;99.90;;;;;;12414012;28;19943;-38
2023/06/26 16:22:23;;;;;;;3.58;1.10;;;21.80;99.90;;;;;;12425774;28;20093;-39
2023/06/26 16:28:25;;;;;;;1.70;0.68;;;21.90;99.90;;;;;;12415728;28;20085;-40
2023/06/26 16:34:27;;;;;;;3.70;1.08;;;21.80;99.90;;;;;;12428057;28;20127;-38
2023/06/26 16:40:29;;;;;;;2.60;1.00;;;21.60;99.90;;;;;;12434869;28;20061;-38
2023/06/26 16:46:32;;;;;;;3.75;1.10;;;21.50;99.90;;;;;;12416502;28;20046;-40
2023/06/26 16:52:34;;;;;;;6.47;0.97;;;21.60;99.90;;;;;;12411599;28;20065;-38
2023/06/26 16:58:36;;;;;;;3.28;1.00;;;21.30;99.90;;;;;;12401283;28;20046;-38
2023/06/26 17:04:38;;;;;;;5.18;1.17;;;21.10;99.90;;;;;;12422717;28;20648;-38
2023/06/26 17:10:40;;;;;;;3.80;0.98;;;21.10;99.90;;;;;;12418602;28;20050;-37
2023/06/26 17:16:42;;;;;;;5.13;1.00;;;21.10;99.90;;;;;;12415698;28;20061;-38
2023/06/26 17:22:44;;;;;;;2.92;1.17;;;21.00;99.90;;;;;;12422553;28;20050;-38
2023/06/26 17:28:46;;;;;;;4.32;1.15;;;20.90;99.90;;;;;;12401896;28;20534;-38
2023/06/26 17:34:49;;;;;;;3.78;1.10;;;20.80;99.90;;;;;;12409055;28;20038;-37
2023/06/26 17:40:51;;;;;;;4.18;1.30;;;20.80;99.90;;;;;;12400810;28;20062;-38
2023/06/26 17:46:53;;;;;;;4.38;1.08;;;20.60;99.90;;;;;;12396711;28;20050;-38
2023/06/26 17:52:58;;;;;;;6.97;1.13;;;20.90;99.90;;;;;;12401356;28;20061;-40
2023/06/26 17:59:01;;;;;;;8.57;1.17;;;21.20;99.90;;;;;;12407411;28;20077;-39
2023/06/26 18:05:03;;;;;;;5.45;1.23;;;21.80;99.90;;;;;;12401533;28;20102;-38
2023/06/26 18:11:05;;;;;;;2.63;1.52;;;22.50;99.90;;;;;;12413064;28;20042;-38
2023/06/26 18:17:06;;;;;;;3.67;0.90;;;22.10;99.90;;;;;;12421358;28;20130;-40
2023/06/26 18:23:09;;;;;;;2.55;1.02;;;21.80;99.90;;;;;;12415528;28;20042;-39
2023/06/26 18:29:11;;;;;;;4.60;1.10;;;21.30;99.90;;;;;;12407404;28;20068;-40
2023/06/26 18:35:13;;;;;;;4.72;1.10;;;20.70;99.90;;;;;;12412097;28;20386;-38
2023/06/26 18:41:15;;;;;;;2.88;1.20;;;20.50;99.90;;;;;;12420762;28;20466;-38
2023/06/26 18:47:17;;;;;;;2.30;0.80;;;20.10;99.90;;;;;;12415689;28;20045;-38
2023/06/26 18:53:19;;;;;;;5.85;1.00;;;20.00;99.90;;;;;;12390421;28;20077;-38
2023/06/26 18:59:23;;;;;;;4.30;0.90;;;19.90;99.90;;;;;;12417124;28;20078;-39
2023/06/26 19:05:25;;;;;;;4.97;1.17;;;19.80;99.90;;;;;;12416489;28;20739;-40
2023/06/26 19:11:27;;;;;;;2.78;0.93;;;19.80;99.90;;;;;;12434248;28;20061;-39
2023/06/26 19:17:29;;;;;;;4.95;1.10;;;19.80;99.90;;;;;;12428962;28;20057;-39
2023/06/26 19:23:32;;;;;;;4.63;1.50;;;19.60;99.90;;;;;;12412123;23;20120;-83
2023/06/26 19:29:35;;;;;;;2.92;0.90;;;19.40;99.90;;;;;;12385536;28;20058;-83
2023/06/26 19:35:40;;;;;;;3.70;1.05;;;19.30;99.90;;;;;;12377359;28;20058;-83
2023/06/26 19:41:45;;;;;;;2.85;0.93;;;19.10;99.90;;;;;;12372282;28;20043;-82
2023/06/26 19:47:48;;;;;;;2.80;0.90;;;19.00;99.90;;;;;;12320271;28;20062;-83
2023/06/26 19:53:50;;;;;;;2.90;1.02;;;18.90;99.90;;;;;;12330693;28;20063;-82
2023/06/26 19:59:53;;;;;;;2.97;0.90;;;18.90;99.90;;;;;;12315656;28;20073;-83
2023/06/26 20:05:55;;;;;;;3.67;0.90;;;18.90;99.90;;;;;;12324877;28;20137;-82
2023/06/26 20:12:00;;;;;;;6.30;1.10;;;18.90;99.90;;;;;;12312755;28;20047;-83
2023/06/26 20:18:08;;;;;;;6.93;1.05;;;18.70;99.90;;;;;;12333861;28;20051;-82
2023/06/26 20:24:10;;;;;;;2.50;0.80;;;18.60;99.90;;;;;;12325991;28;20058;-83
2023/06/26 20:30:13;;;;;;;7.90;1.27;;;18.30;99.90;;;;;;12315884;28;20051;-83
2023/06/26 20:36:16;;;;;;;3.28;1.10;;;18.30;99.90;;;;;;12338217;28;20062;-83
2023/06/26 20:42:19;;;;;;;4.90;1.00;;;18.30;99.90;;;;;;12344311;28;20061;-83
2023/06/26 20:48:22;;;;;;;3.13;1.10;;;18.30;99.90;;;;;;12346936;28;20306;-83
2023/06/26 20:54:25;;;;;;;1.80;0.80;;;18.20;99.90;;;;;;12348541;28;20515;-83
2023/06/26 21:00:27;;;;;;;4.53;0.85;;;18.20;99.90;;;;;;12327576;28;20039;-84
2023/06/26 21:06:29;;;;;;;7.38;1.30;;;18.50;99.90;;;;;;12341055;28;20186;-83
2023/06/26 21:12:31;;;;;;;6.47;1.20;;;18.20;99.90;;;;;;12330507;28;20042;-83
2023/06/26 21:18:33;;;;;;;6.50;1.23;;;17.80;99.90;;;;;;12358940;28;20141;-83
2023/06/26 21:24:37;;;;;;;5.40;0.93;;;17.80;99.90;;;;;;12343007;28;20047;-83
2023/06/26 21:30:39;;;;;;;4.55;1.10;;;17.60;99.90;;;;;;12343601;28;20047;-82
2023/06/26 21:36:41;;;;;;;4.95;1.27;;;17.50;99.90;;;;;;12344688;28;20047;-84
2023/06/26 21:42:44;;;;;;;3.03;0.95;;;17.40;99.90;;;;;;12330372;28;20040;-84
2023/06/26 21:48:46;;;;;;;4.00;0.98;;;17.50;99.90;;;;;;12332705;28;20043;-84
2023/06/26 21:54:48;;;;;;;2.65;1.08;;;17.20;99.90;;;;;;12343042;28;20042;-84
2023/06/26 22:00:50;;;;;;;3.88;1.30;;;17.20;99.90;;;;;;12350816;28;20074;-83
2023/06/26 22:06:52;;;;;;;4.90;1.38;;;17.20;99.90;;;;;;12313208;28;20054;-83
2023/06/26 22:12:57;;;;;;;4.20;1.20;;;17.00;99.90;;;;;;12361758;28;20046;-83
2023/06/26 22:18:59;;;;;;;3.72;1.13;;;17.00;99.90;;;;;;12336734;28;20070;-81
2023/06/26 22:25:02;;;;;;;5.85;1.05;;;17.10;99.90;;;;;;12328683;28;20051;-83
2023/06/26 22:31:05;;;;;;;2.67;1.10;;;17.00;99.90;;;;;;12335979;28;20043;-83
2023/06/26 22:37:07;;;;;;;6.65;1.20;;;16.90;99.90;;;;;;12350687;28;20306;-84
2023/06/26 22:43:09;;;;;;;3.90;1.20;;;17.00;99.90;;;;;;12324504;28;20112;-84
2023/06/26 22:49:13;;;;;;;7.68;1.80;;;16.90;99.90;;;;;;12333684;28;20057;-83
2023/06/26 22:55:15;;;;;;;4.68;1.50;;;16.70;99.90;;;;;;12344311;28;20129;-83
2023/06/26 23:01:17;;;;;;;2.83;1.20;;;16.60;99.90;;;;;;12332137;28;20189;-83
2023/06/26 23:07:20;;;;;;;4.60;1.38;;;16.40;99.90;;;;;;12344350;28;20059;-84
2023/06/26 23:13:22;;;;;;;3.47;1.40;;;16.80;99.90;;;;;;12344489;28;20050;-84
2023/06/26 23:19:24;;;;;;;6.97;1.50;;;16.50;99.90;;;;;;12328429;28;20078;-84
2023/06/26 23:25:33;;;;;;;3.72;1.38;;;16.60;99.90;;;;;;12338349;28;20047;-83
2023/06/26 23:31:36;;;;;;;5.63;1.60;;;16.40;99.90;;;;;;12345271;28;20522;-83
2023/06/26 23:37:40;;;;;;;4.32;1.20;;;16.40;99.90;;;;;;12343332;28;20122;-83
2023/06/26 23:43:42;;;;;;;5.32;1.55;;;16.30;99.90;;;;;;12341082;28;20040;-83
2023/06/26 23:49:45;;;;;;;5.63;1.20;;;16.20;99.90;;;;;;12356827;28;20073;-83
2023/06/26 23:55:47;;;;;;;6.18;1.30;;;16.10;99.90;;;;;;12330050;28;20042;-83
